createdAt,value
2017-02-19T00:00:41.309Z,1015.31
2017-02-19T00:01:41.851Z,1015.29
2017-02-19T00:02:42.371Z,1015.27
2017-02-19T00:03:42.905Z,1015.29
2017-02-19T00:04:43.434Z,1015.32
2017-02-19T00:05:43.975Z,1015.25
2017-02-19T00:06:44.495Z,1015.18
2017-02-19T00:07:45.018Z,1015.15
2017-02-19T00:08:45.550Z,1015.20
2017-02-19T00:09:46.078Z,1015.12
2017-02-19T00:10:46.616Z,1015.14
2017-02-19T00:11:47.149Z,1015.16
2017-02-19T00:12:47.684Z,1015.08
2017-02-19T00:13:48.218Z,1015.19
2017-02-19T00:14:48.754Z,1015.12
2017-02-19T00:15:49.290Z,1015.16
2017-02-19T00:16:49.817Z,1015.20
2017-02-19T00:17:50.362Z,1015.20
2017-02-19T00:18:50.886Z,1015.19
2017-02-19T00:19:51.413Z,1015.21
2017-02-19T00:20:51.945Z,1015.17
2017-02-19T00:21:52.624Z,1015.20
2017-02-19T00:22:53.004Z,1015.19
2017-02-19T00:23:53.717Z,1015.17
2017-02-19T00:24:54.067Z,1015.16
2017-02-19T00:25:54.592Z,1015.13
2017-02-19T00:26:55.129Z,1015.16
2017-02-19T00:27:55.684Z,1015.12
2017-02-19T00:28:56.931Z,1015.12
2017-02-19T00:29:56.712Z,1015.17
2017-02-19T00:30:57.247Z,1015.14
2017-02-19T00:31:57.779Z,1015.22
2017-02-19T00:32:58.309Z,1015.20
2017-02-19T00:33:58.843Z,1015.14
2017-02-19T00:34:59.372Z,1015.15
2017-02-19T00:35:59.900Z,1015.13
2017-02-19T00:37:00.440Z,1015.08
2017-02-19T00:38:00.972Z,1015.06
2017-02-19T00:39:01.497Z,1015.10
2017-02-19T00:40:02.026Z,1015.09
2017-02-19T00:41:02.564Z,1014.98
2017-02-19T00:42:03.088Z,1015.05
2017-02-19T00:43:03.618Z,1015.02
2017-02-19T00:44:04.148Z,1014.97
2017-02-19T00:45:04.682Z,1015.01
2017-02-19T00:46:05.222Z,1014.93
2017-02-19T00:47:05.891Z,1015.01
2017-02-19T00:48:06.273Z,1015.01
2017-02-19T00:49:06.804Z,1014.98
2017-02-19T00:50:07.335Z,1015.02
2017-02-19T00:51:07.867Z,1015.07
2017-02-19T00:52:08.398Z,1015.02
2017-02-19T00:53:08.932Z,1015.02
2017-02-19T00:54:09.466Z,1015.03
2017-02-19T00:55:10.001Z,1015.03
2017-02-19T00:56:10.536Z,1014.95
2017-02-19T00:57:11.106Z,1014.98
2017-02-19T00:58:11.600Z,1014.99
2017-02-19T00:59:12.131Z,1015.01
2017-02-19T01:00:12.656Z,1014.95
2017-02-19T01:01:13.191Z,1015.00
2017-02-19T01:02:13.788Z,1014.99
2017-02-19T01:03:14.253Z,1014.96
2017-02-19T01:04:14.784Z,1015.03
2017-02-19T01:05:15.315Z,1015.06
2017-02-19T01:06:15.863Z,1015.05
2017-02-19T01:07:16.382Z,1015.00
2017-02-19T01:08:16.934Z,1015.01
2017-02-19T01:09:17.447Z,1014.97
2017-02-19T01:10:18.007Z,1014.92
2017-02-19T01:11:18.504Z,1014.95
2017-02-19T01:12:19.038Z,1014.93
2017-02-19T01:13:19.564Z,1014.86
2017-02-19T01:14:20.106Z,1014.88
2017-02-19T01:15:20.628Z,1014.87
2017-02-19T01:16:21.158Z,1014.87
2017-02-19T01:17:21.685Z,1014.87
2017-02-19T01:18:22.222Z,1014.81
2017-02-19T01:19:22.751Z,1014.77
2017-02-19T01:20:23.274Z,1014.74
2017-02-19T01:21:23.807Z,1014.73
2017-02-19T01:22:24.347Z,1014.70
2017-02-19T01:23:24.875Z,1014.76
2017-02-19T01:24:25.413Z,1014.68
2017-02-19T01:25:25.933Z,1014.60
2017-02-19T01:26:26.617Z,1014.62
2017-02-19T01:27:27.000Z,1014.59
2017-02-19T01:28:27.535Z,1014.59
2017-02-19T01:29:28.062Z,1014.60
2017-02-19T01:30:28.591Z,1014.54
2017-02-19T01:31:29.127Z,1014.56
2017-02-19T01:32:29.660Z,1014.56
2017-02-19T01:33:30.187Z,1014.56
2017-02-19T01:34:30.866Z,1014.58
2017-02-19T01:35:31.251Z,1014.53
2017-02-19T01:36:31.784Z,1014.54
2017-02-19T01:37:32.317Z,1014.54
2017-02-19T01:38:32.854Z,1014.56
2017-02-19T01:39:33.387Z,1014.54
2017-02-19T01:40:33.916Z,1014.55
2017-02-19T01:41:34.748Z,1014.50
2017-02-19T01:42:34.974Z,1014.59
2017-02-19T01:43:35.515Z,1014.55
2017-02-19T01:44:36.186Z,1014.51
2017-02-19T01:45:36.568Z,1014.54
2017-02-19T01:46:37.096Z,1014.54
2017-02-19T01:47:37.629Z,1014.54
2017-02-19T01:48:38.305Z,1014.56
2017-02-19T01:49:38.687Z,1014.58
2017-02-19T01:50:39.366Z,1014.53
2017-02-19T01:51:39.748Z,1014.54
2017-02-19T01:52:40.277Z,1014.52
2017-02-19T01:53:40.810Z,1014.45
2017-02-19T01:54:41.356Z,1014.40
2017-02-19T01:55:41.872Z,1014.39
2017-02-19T01:56:42.401Z,1014.37
2017-02-19T01:57:42.947Z,1014.40
2017-02-19T01:58:43.464Z,1014.37
2017-02-19T01:59:43.999Z,1014.44
2017-02-19T02:00:44.522Z,1014.43
2017-02-19T02:01:45.060Z,1014.43
2017-02-19T02:02:45.597Z,1014.44
2017-02-19T02:03:46.124Z,1014.47
2017-02-19T02:04:46.646Z,1014.47
2017-02-19T02:05:47.175Z,1014.42
2017-02-19T02:06:47.713Z,1014.43
2017-02-19T02:07:48.236Z,1014.38
2017-02-19T02:08:48.765Z,1014.43
2017-02-19T02:09:49.297Z,1014.43
2017-02-19T02:10:49.834Z,1014.44
2017-02-19T02:11:50.360Z,1014.48
2017-02-19T02:12:50.893Z,1014.39
2017-02-19T02:13:51.428Z,1014.40
2017-02-19T02:14:51.962Z,1014.37
2017-02-19T02:15:52.489Z,1014.40
2017-02-19T02:16:53.021Z,1014.34
2017-02-19T02:17:53.566Z,1014.36
2017-02-19T02:18:54.090Z,1014.38
2017-02-19T02:19:54.627Z,1014.38
2017-02-19T02:20:55.313Z,1014.36
2017-02-19T02:21:55.692Z,1014.34
2017-02-19T02:22:56.228Z,1014.39
2017-02-19T02:23:56.748Z,1014.39
2017-02-19T02:24:57.279Z,1014.33
2017-02-19T02:25:57.810Z,1014.35
2017-02-19T02:26:58.343Z,1014.26
2017-02-19T02:27:58.870Z,1014.22
2017-02-19T02:28:59.403Z,1014.23
2017-02-19T02:29:59.929Z,1014.22
2017-02-19T02:31:00.461Z,1014.22
2017-02-19T02:32:00.993Z,1014.18
2017-02-19T02:33:01.522Z,1014.12
2017-02-19T02:34:02.051Z,1014.11
2017-02-19T02:35:02.580Z,1014.13
2017-02-19T02:36:03.114Z,1014.17
2017-02-19T02:37:03.635Z,1014.13
2017-02-19T02:38:04.177Z,1014.15
2017-02-19T02:39:04.711Z,1014.14
2017-02-19T02:40:05.234Z,1014.13
2017-02-19T02:41:05.764Z,1014.07
2017-02-19T02:42:06.293Z,1014.04
2017-02-19T02:43:06.824Z,1014.06
2017-02-19T02:44:07.365Z,1014.08
2017-02-19T02:45:07.888Z,1014.07
2017-02-19T02:46:08.418Z,1014.07
2017-02-19T02:47:08.952Z,1014.04
2017-02-19T02:48:09.478Z,1013.99
2017-02-19T02:49:10.008Z,1013.94
2017-02-19T02:50:10.538Z,1013.97
2017-02-19T02:51:11.067Z,1013.97
2017-02-19T02:52:11.601Z,1013.97
2017-02-19T02:53:12.132Z,1013.96
2017-02-19T02:54:12.663Z,1013.94
2017-02-19T02:55:13.192Z,1013.90
2017-02-19T02:56:13.722Z,1013.88
2017-02-19T02:57:14.254Z,1013.90
2017-02-19T02:58:14.786Z,1013.92
2017-02-19T02:59:15.315Z,1013.95
2017-02-19T03:00:15.858Z,1013.92
2017-02-19T03:01:16.539Z,1013.91
2017-02-19T03:02:16.924Z,1013.85
2017-02-19T03:03:17.456Z,1013.93
2017-02-19T03:04:17.994Z,1013.94
2017-02-19T03:05:18.526Z,1013.92
2017-02-19T03:06:19.063Z,1013.95
2017-02-19T03:07:19.592Z,1013.93
2017-02-19T03:08:20.119Z,1013.90
2017-02-19T03:09:20.648Z,1013.93
2017-02-19T03:10:21.178Z,1013.93
2017-02-19T03:11:21.707Z,1013.90
2017-02-19T03:12:22.385Z,1013.97
2017-02-19T03:13:22.774Z,1013.93
2017-02-19T03:14:23.301Z,1013.95
2017-02-19T03:15:23.826Z,1013.91
2017-02-19T03:16:24.363Z,1013.91
2017-02-19T03:17:24.889Z,1013.81
2017-02-19T03:18:25.422Z,1013.83
2017-02-19T03:19:25.952Z,1013.83
2017-02-19T03:20:26.482Z,1013.75
2017-02-19T03:21:27.018Z,1013.75
2017-02-19T03:22:27.546Z,1013.79
2017-02-19T03:23:28.071Z,1013.77
2017-02-19T03:24:28.606Z,1013.75
2017-02-19T03:25:29.150Z,1013.71
2017-02-19T03:26:29.672Z,1013.70
2017-02-19T03:27:30.203Z,1013.73
2017-02-19T03:28:30.737Z,1013.68
2017-02-19T03:29:31.265Z,1013.65
2017-02-19T03:30:31.790Z,1013.64
2017-02-19T03:31:32.318Z,1013.63
2017-02-19T03:32:32.848Z,1013.67
2017-02-19T03:33:33.379Z,1013.61
2017-02-19T03:34:33.907Z,1013.63
2017-02-19T03:35:34.594Z,1013.59
2017-02-19T03:36:34.977Z,1013.55
2017-02-19T03:37:35.501Z,1013.48
2017-02-19T03:38:36.029Z,1013.44
2017-02-19T03:39:36.560Z,1013.42
2017-02-19T03:40:37.125Z,1013.43
2017-02-19T03:41:37.633Z,1013.44
2017-02-19T03:42:38.158Z,1013.41
2017-02-19T03:43:38.697Z,1013.41
2017-02-19T03:44:39.227Z,1013.45
2017-02-19T03:45:39.764Z,1013.38
2017-02-19T03:46:40.293Z,1013.43
2017-02-19T03:47:40.833Z,1013.43
2017-02-19T03:48:41.358Z,1013.41
2017-02-19T03:49:41.886Z,1013.50
2017-02-19T03:50:42.422Z,1013.53
2017-02-19T03:51:42.978Z,1013.50
2017-02-19T03:52:43.487Z,1013.49
2017-02-19T03:53:44.035Z,1013.50
2017-02-19T03:54:44.545Z,1013.46
2017-02-19T03:55:45.080Z,1013.51
2017-02-19T03:56:45.609Z,1013.42
2017-02-19T03:57:46.141Z,1013.45
2017-02-19T03:58:46.672Z,1013.44
2017-02-19T03:59:47.206Z,1013.43
2017-02-19T04:00:47.735Z,1013.45
2017-02-19T04:01:48.264Z,1013.38
2017-02-19T04:02:48.791Z,1013.34
2017-02-19T04:03:49.334Z,1013.31
2017-02-19T04:04:49.856Z,1013.35
2017-02-19T04:05:50.382Z,1013.36
2017-02-19T04:06:50.917Z,1013.31
2017-02-19T04:07:51.451Z,1013.26
2017-02-19T04:08:51.984Z,1013.28
2017-02-19T04:09:52.662Z,1013.25
2017-02-19T04:10:53.046Z,1013.24
2017-02-19T04:11:53.724Z,1013.27
2017-02-19T04:12:54.110Z,1013.23
2017-02-19T04:13:54.639Z,1013.26
2017-02-19T04:14:55.173Z,1013.26
2017-02-19T04:15:55.703Z,1013.26
2017-02-19T04:16:56.232Z,1013.27
2017-02-19T04:17:56.762Z,1013.24
2017-02-19T04:18:57.297Z,1013.28
2017-02-19T04:19:58.122Z,1013.30
2017-02-19T04:20:58.355Z,1013.22
2017-02-19T04:21:58.887Z,1013.20
2017-02-19T04:22:59.421Z,1013.20
2017-02-19T04:23:59.959Z,1013.24
2017-02-19T04:25:00.498Z,1013.24
2017-02-19T04:26:01.025Z,1013.30
2017-02-19T04:27:01.563Z,1013.23
2017-02-19T04:28:02.092Z,1013.20
2017-02-19T04:29:02.630Z,1013.18
2017-02-19T04:30:03.156Z,1013.20
2017-02-19T04:31:03.690Z,1013.20
2017-02-19T04:32:04.218Z,1013.18
2017-02-19T04:33:04.751Z,1013.18
2017-02-19T04:34:05.280Z,1013.20
2017-02-19T04:35:05.816Z,1013.14
2017-02-19T04:36:06.346Z,1013.15
2017-02-19T04:37:06.874Z,1013.15
2017-02-19T04:38:07.404Z,1013.13
2017-02-19T04:39:07.942Z,1013.11
2017-02-19T04:40:08.466Z,1013.08
2017-02-19T04:41:09.002Z,1013.05
2017-02-19T04:42:09.531Z,1013.05
2017-02-19T04:43:10.210Z,1013.05
2017-02-19T04:44:10.605Z,1013.00
2017-02-19T04:45:11.132Z,1013.03
2017-02-19T04:46:11.662Z,1013.00
2017-02-19T04:47:12.210Z,1013.01
2017-02-19T04:48:12.728Z,1012.94
2017-02-19T04:49:13.255Z,1012.94
2017-02-19T04:50:13.790Z,1012.91
2017-02-19T04:51:14.321Z,1012.94
2017-02-19T04:52:14.851Z,1012.87
2017-02-19T04:53:15.380Z,1012.89
2017-02-19T04:54:15.909Z,1012.91
2017-02-19T04:55:16.439Z,1012.89
2017-02-19T04:56:16.984Z,1012.89
2017-02-19T04:57:17.507Z,1012.91
2017-02-19T04:58:18.238Z,1012.89
2017-02-19T04:59:18.574Z,1012.94
2017-02-19T05:00:19.107Z,1012.83
2017-02-19T05:01:19.633Z,1012.82
2017-02-19T05:02:20.161Z,1012.83
2017-02-19T05:03:20.694Z,1012.78
2017-02-19T05:04:21.241Z,1012.83
2017-02-19T05:05:21.778Z,1012.80
2017-02-19T05:06:22.292Z,1012.77
2017-02-19T05:07:22.834Z,1012.83
2017-02-19T05:08:23.362Z,1012.76
2017-02-19T05:09:23.898Z,1012.77
2017-02-19T05:10:24.431Z,1012.72
2017-02-19T05:11:24.958Z,1012.74
2017-02-19T05:12:25.488Z,1012.69
2017-02-19T05:13:26.026Z,1012.71
2017-02-19T05:14:26.555Z,1012.76
2017-02-19T05:15:27.089Z,1012.81
2017-02-19T05:16:27.617Z,1012.78
2017-02-19T05:17:28.149Z,1012.77
2017-02-19T05:18:28.680Z,1012.81
2017-02-19T05:19:29.209Z,1012.80
2017-02-19T05:20:29.742Z,1012.81
2017-02-19T05:21:30.286Z,1012.79
2017-02-19T05:22:30.800Z,1012.81
2017-02-19T05:23:31.487Z,1012.80
2017-02-19T05:24:31.873Z,1012.82
2017-02-19T05:25:32.431Z,1012.88
2017-02-19T05:26:32.965Z,1012.83
2017-02-19T05:27:33.464Z,1012.78
2017-02-19T05:28:33.994Z,1012.87
2017-02-19T05:29:34.530Z,1012.78
2017-02-19T05:30:35.061Z,1012.74
2017-02-19T05:31:35.598Z,1012.71
2017-02-19T05:32:36.120Z,1012.71
2017-02-19T05:33:36.652Z,1012.70
2017-02-19T05:34:37.187Z,1012.67
2017-02-19T05:35:37.716Z,1012.67
2017-02-19T05:36:38.394Z,1012.67
2017-02-19T05:37:38.992Z,1012.66
2017-02-19T05:38:39.329Z,1012.66
2017-02-19T05:39:39.836Z,1012.64
2017-02-19T05:40:40.367Z,1012.65
2017-02-19T05:41:40.902Z,1012.66
2017-02-19T05:42:41.431Z,1012.70
2017-02-19T05:43:41.962Z,1012.73
2017-02-19T05:44:42.495Z,1012.69
2017-02-19T05:45:43.023Z,1012.65
2017-02-19T05:46:43.557Z,1012.67
2017-02-19T05:47:44.090Z,1012.68
2017-02-19T05:48:44.630Z,1012.67
2017-02-19T05:49:45.167Z,1012.69
2017-02-19T05:50:45.694Z,1012.63
2017-02-19T05:51:46.228Z,1012.62
2017-02-19T05:52:46.757Z,1012.57
2017-02-19T05:53:47.294Z,1012.52
2017-02-19T05:54:47.819Z,1012.51
2017-02-19T05:55:48.355Z,1012.57
2017-02-19T05:56:48.886Z,1012.49
2017-02-19T05:57:49.416Z,1012.46
2017-02-19T05:58:49.960Z,1012.47
2017-02-19T05:59:50.476Z,1012.43
2017-02-19T06:00:51.017Z,1012.44
2017-02-19T06:01:51.540Z,1012.51
2017-02-19T06:02:52.077Z,1012.45
2017-02-19T06:03:52.598Z,1012.46
2017-02-19T06:04:53.135Z,1012.47
2017-02-19T06:05:53.668Z,1012.48
2017-02-19T06:06:54.192Z,1012.45
2017-02-19T06:07:54.726Z,1012.44
2017-02-19T06:08:55.257Z,1012.44
2017-02-19T06:09:55.788Z,1012.43
2017-02-19T06:10:56.316Z,1012.42
2017-02-19T06:11:56.847Z,1012.39
2017-02-19T06:12:57.390Z,1012.40
2017-02-19T06:13:57.914Z,1012.42
2017-02-19T06:14:58.444Z,1012.45
2017-02-19T06:15:58.984Z,1012.48
2017-02-19T06:16:59.499Z,1012.54
2017-02-19T06:18:00.181Z,1012.50
2017-02-19T06:19:00.569Z,1012.49
2017-02-19T06:20:01.100Z,1012.53
2017-02-19T06:21:01.645Z,1012.54
2017-02-19T06:22:02.166Z,1012.53
2017-02-19T06:23:02.704Z,1012.52
2017-02-19T06:24:03.231Z,1012.55
2017-02-19T06:25:03.764Z,1012.53
2017-02-19T06:26:04.294Z,1012.49
2017-02-19T06:27:04.820Z,1012.50
2017-02-19T06:28:05.354Z,1012.48
2017-02-19T06:29:05.887Z,1012.46
2017-02-19T06:30:06.423Z,1012.50
2017-02-19T06:31:07.112Z,1012.52
2017-02-19T06:32:07.491Z,1012.55
2017-02-19T06:33:08.027Z,1012.63
2017-02-19T06:34:08.556Z,1012.70
2017-02-19T06:35:09.087Z,1012.71
2017-02-19T06:36:09.621Z,1012.63
2017-02-19T06:37:10.165Z,1012.66
2017-02-19T06:38:10.687Z,1012.68
2017-02-19T06:39:11.215Z,1012.66
2017-02-19T06:40:11.747Z,1012.63
2017-02-19T06:41:12.280Z,1012.70
2017-02-19T06:42:12.804Z,1012.71
2017-02-19T06:43:13.338Z,1012.67
2017-02-19T06:44:13.866Z,1012.63
2017-02-19T06:45:14.407Z,1012.69
2017-02-19T06:46:14.936Z,1012.62
2017-02-19T06:47:15.456Z,1012.67
2017-02-19T06:48:15.989Z,1012.70
2017-02-19T06:49:16.529Z,1012.65
2017-02-19T06:50:17.078Z,1012.64
2017-02-19T06:51:17.578Z,1012.63
2017-02-19T06:52:18.114Z,1012.65
2017-02-19T06:53:18.795Z,1012.67
2017-02-19T06:54:19.176Z,1012.67
2017-02-19T06:55:19.710Z,1012.62
2017-02-19T06:56:20.242Z,1012.60
2017-02-19T06:57:21.068Z,1012.61
2017-02-19T06:58:21.302Z,1012.58
2017-02-19T06:59:21.844Z,1012.59
2017-02-19T07:00:22.363Z,1012.56
2017-02-19T07:01:22.897Z,1012.55
2017-02-19T07:02:23.429Z,1012.66
2017-02-19T07:03:23.954Z,1012.52
2017-02-19T07:04:24.490Z,1012.45
2017-02-19T07:05:25.017Z,1012.51
2017-02-19T07:06:25.554Z,1012.46
2017-02-19T07:07:26.240Z,1012.50
2017-02-19T07:08:26.628Z,1012.50
2017-02-19T07:09:27.164Z,1012.50
2017-02-19T07:10:27.709Z,1012.54
2017-02-19T07:11:28.249Z,1012.50
2017-02-19T07:12:28.788Z,1012.50
2017-02-19T07:13:29.327Z,1012.49
2017-02-19T07:14:29.853Z,1012.51
2017-02-19T07:15:30.384Z,1012.53
2017-02-19T07:16:30.918Z,1012.54
2017-02-19T07:17:31.455Z,1012.59
2017-02-19T07:18:31.987Z,1012.56
2017-02-19T07:19:32.512Z,1012.52
2017-02-19T07:20:33.047Z,1012.50
2017-02-19T07:21:33.575Z,1012.53
2017-02-19T07:22:34.109Z,1012.54
2017-02-19T07:23:34.639Z,1012.49
2017-02-19T07:24:35.165Z,1012.50
2017-02-19T07:25:35.699Z,1012.47
2017-02-19T07:26:36.260Z,1012.46
2017-02-19T07:27:36.757Z,1012.49
2017-02-19T07:28:37.289Z,1012.49
2017-02-19T07:29:37.822Z,1012.44
2017-02-19T07:30:38.347Z,1012.43
2017-02-19T07:31:38.893Z,1012.46
2017-02-19T07:32:39.408Z,1012.41
2017-02-19T07:33:39.948Z,1012.40
2017-02-19T07:34:40.470Z,1012.38
2017-02-19T07:35:41.000Z,1012.38
2017-02-19T07:36:41.533Z,1012.44
2017-02-19T07:37:42.361Z,1012.36
2017-02-19T07:38:42.594Z,1012.32
2017-02-19T07:39:43.122Z,1012.33
2017-02-19T07:40:43.653Z,1012.35
2017-02-19T07:41:44.184Z,1012.32
2017-02-19T07:42:44.714Z,1012.29
2017-02-19T07:43:45.254Z,1012.32
2017-02-19T07:44:45.772Z,1012.32
2017-02-19T07:45:46.298Z,1012.31
2017-02-19T07:46:46.833Z,1012.36
2017-02-19T07:47:47.363Z,1012.33
2017-02-19T07:48:47.893Z,1012.35
2017-02-19T07:49:48.422Z,1012.36
2017-02-19T07:50:48.952Z,1012.34
2017-02-19T07:51:49.484Z,1012.29
2017-02-19T07:52:50.018Z,1012.27
2017-02-19T07:53:50.549Z,1012.35
2017-02-19T07:54:51.085Z,1012.35
2017-02-19T07:55:51.630Z,1012.34
2017-02-19T07:56:52.152Z,1012.40
2017-02-19T07:57:52.704Z,1012.35
2017-02-19T07:58:53.226Z,1012.36
2017-02-19T07:59:53.746Z,1012.35
2017-02-19T08:00:54.283Z,1012.34
2017-02-19T08:01:54.963Z,1012.34
2017-02-19T08:02:55.344Z,1012.37
2017-02-19T08:03:55.875Z,1012.39
2017-02-19T08:04:56.409Z,1012.34
2017-02-19T08:05:56.939Z,1012.37
2017-02-19T08:06:57.469Z,1012.38
2017-02-19T08:07:58.004Z,1012.36
2017-02-19T08:08:58.531Z,1012.34
2017-02-19T08:09:59.065Z,1012.38
2017-02-19T08:10:59.596Z,1012.37
2017-02-19T08:12:00.127Z,1012.35
2017-02-19T08:13:00.657Z,1012.43
2017-02-19T08:14:01.191Z,1012.40
2017-02-19T08:15:01.723Z,1012.40
2017-02-19T08:16:02.329Z,1012.38
2017-02-19T08:17:02.929Z,1012.40
2017-02-19T08:18:03.313Z,1012.40
2017-02-19T08:19:03.844Z,1012.41
2017-02-19T08:20:04.376Z,1012.38
2017-02-19T08:21:04.911Z,1012.40
2017-02-19T08:22:05.442Z,1012.32
2017-02-19T08:23:05.968Z,1012.34
2017-02-19T08:24:06.500Z,1012.32
2017-02-19T08:25:07.033Z,1012.30
2017-02-19T08:26:07.555Z,1012.30
2017-02-19T08:27:08.088Z,1012.39
2017-02-19T08:28:08.623Z,1012.43
2017-02-19T08:29:10.069Z,1012.34
2017-02-19T08:30:09.687Z,1012.36
2017-02-19T08:31:10.216Z,1012.36
2017-02-19T08:32:10.888Z,1012.35
2017-02-19T08:33:11.266Z,1012.29
2017-02-19T08:34:11.795Z,1012.27
2017-02-19T08:35:12.330Z,1012.26
2017-02-19T08:36:12.878Z,1012.17
2017-02-19T08:37:13.402Z,1012.19
2017-02-19T08:38:13.945Z,1012.16
2017-02-19T08:39:14.476Z,1012.15
2017-02-19T08:40:15.003Z,1012.17
2017-02-19T08:41:15.540Z,1012.09
2017-02-19T08:42:16.073Z,1012.07
2017-02-19T08:43:16.633Z,1012.11
2017-02-19T08:44:17.132Z,1012.12
2017-02-19T08:45:17.663Z,1012.19
2017-02-19T08:46:18.191Z,1012.14
2017-02-19T08:47:18.722Z,1012.06
2017-02-19T08:48:19.401Z,1012.04
2017-02-19T08:49:19.783Z,1012.02
2017-02-19T08:50:20.326Z,1012.00
2017-02-19T08:51:20.860Z,1012.02
2017-02-19T08:52:21.404Z,1012.05
2017-02-19T08:53:21.934Z,1012.04
2017-02-19T08:54:22.464Z,1012.08
2017-02-19T08:55:23.160Z,1012.06
2017-02-19T08:56:23.676Z,1012.06
2017-02-19T08:57:24.055Z,1012.08
2017-02-19T08:58:24.585Z,1012.05
2017-02-19T08:59:25.115Z,1012.06
2017-02-19T09:00:25.647Z,1012.07
2017-02-19T09:01:26.179Z,1012.06
2017-02-19T09:02:26.717Z,1012.03
2017-02-19T09:03:27.241Z,1012.07
2017-02-19T09:04:27.778Z,1012.06
2017-02-19T09:05:28.306Z,1012.08
2017-02-19T09:06:28.836Z,1012.05
2017-02-19T09:07:29.365Z,1012.07
2017-02-19T09:08:29.900Z,1012.05
2017-02-19T09:09:30.430Z,1012.12
2017-02-19T09:10:30.958Z,1012.12
2017-02-19T09:11:31.498Z,1012.09
2017-02-19T09:12:32.033Z,1012.10
2017-02-19T09:13:32.566Z,1012.12
2017-02-19T09:14:33.089Z,1012.13
2017-02-19T09:15:33.616Z,1012.16
2017-02-19T09:16:34.145Z,1012.21
2017-02-19T09:17:34.683Z,1012.13
2017-02-19T09:18:35.236Z,1012.13
2017-02-19T09:19:35.752Z,1012.16
2017-02-19T09:20:36.283Z,1012.15
2017-02-19T09:21:36.816Z,1012.16
2017-02-19T09:22:37.348Z,1012.11
2017-02-19T09:23:37.877Z,1012.16
2017-02-19T09:24:38.406Z,1012.13
2017-02-19T09:25:38.938Z,1012.01
2017-02-19T09:26:39.468Z,1011.98
2017-02-19T09:27:40.000Z,1011.97
2017-02-19T09:28:40.530Z,1011.94
2017-02-19T09:29:41.061Z,1011.94
2017-02-19T09:30:41.586Z,1011.94
2017-02-19T09:31:42.123Z,1011.95
2017-02-19T09:32:42.653Z,1011.98
2017-02-19T09:33:43.181Z,1011.87
2017-02-19T09:34:43.810Z,1011.87
2017-02-19T09:35:44.254Z,1011.88
2017-02-19T09:36:44.769Z,1011.91
2017-02-19T09:37:45.303Z,1011.95
2017-02-19T09:38:45.836Z,1011.92
2017-02-19T09:39:46.362Z,1011.85
2017-02-19T09:40:46.894Z,1011.86
2017-02-19T09:41:47.428Z,1011.84
2017-02-19T09:42:47.955Z,1011.85
2017-02-19T09:43:48.489Z,1011.81
2017-02-19T09:44:49.017Z,1011.81
2017-02-19T09:45:49.693Z,1011.81
2017-02-19T09:46:50.076Z,1011.78
2017-02-19T09:47:50.757Z,1011.77
2017-02-19T09:48:51.153Z,1011.75
2017-02-19T09:49:51.669Z,1011.79
2017-02-19T09:50:52.205Z,1011.79
2017-02-19T09:51:52.740Z,1011.77
2017-02-19T09:52:53.420Z,1011.83
2017-02-19T09:53:53.805Z,1011.82
2017-02-19T09:54:54.331Z,1011.79
2017-02-19T09:55:54.865Z,1011.78
2017-02-19T09:56:55.397Z,1011.78
2017-02-19T09:57:55.927Z,1011.81
2017-02-19T09:58:56.457Z,1011.79
2017-02-19T09:59:56.997Z,1011.82
2017-02-19T10:00:57.531Z,1011.82
2017-02-19T10:01:58.063Z,1011.79
2017-02-19T10:02:58.596Z,1011.82
2017-02-19T10:03:59.128Z,1011.77
2017-02-19T10:04:59.675Z,1011.75
2017-02-19T10:06:00.194Z,1011.74
2017-02-19T10:07:00.723Z,1011.73
2017-02-19T10:08:01.259Z,1011.73
2017-02-19T10:09:01.940Z,1011.80
2017-02-19T10:10:02.349Z,1011.79
2017-02-19T10:11:02.860Z,1011.77
2017-02-19T10:12:03.383Z,1011.79
2017-02-19T10:13:03.907Z,1011.74
2017-02-19T10:14:04.742Z,1011.74
2017-02-19T10:15:04.990Z,1011.68
2017-02-19T10:16:05.501Z,1011.72
2017-02-19T10:17:06.181Z,1011.67
2017-02-19T10:18:06.566Z,1011.66
2017-02-19T10:19:07.103Z,1011.65
2017-02-19T10:20:07.627Z,1011.71
2017-02-19T10:21:08.309Z,1011.63
2017-02-19T10:22:08.690Z,1011.63
2017-02-19T10:23:09.250Z,1011.63
2017-02-19T10:24:09.757Z,1011.63
2017-02-19T10:25:10.283Z,1011.63
2017-02-19T10:26:10.813Z,1011.54
2017-02-19T10:27:11.492Z,1011.55
2017-02-19T10:28:11.872Z,1011.51
2017-02-19T10:29:12.416Z,1011.57
2017-02-19T10:30:12.933Z,1011.53
2017-02-19T10:31:13.464Z,1011.57
2017-02-19T10:32:14.001Z,1011.55
2017-02-19T10:33:14.528Z,1011.61
2017-02-19T10:34:15.060Z,1011.54
2017-02-19T10:35:15.598Z,1011.55
2017-02-19T10:36:16.128Z,1011.60
2017-02-19T10:37:16.655Z,1011.62
2017-02-19T10:38:17.188Z,1011.59
2017-02-19T10:39:17.713Z,1011.57
2017-02-19T10:40:18.250Z,1011.53
2017-02-19T10:41:18.798Z,1011.58
2017-02-19T10:42:19.322Z,1011.56
2017-02-19T10:43:19.856Z,1011.56
2017-02-19T10:44:20.392Z,1011.55
2017-02-19T10:45:20.929Z,1011.44
2017-02-19T10:46:21.462Z,1011.51
2017-02-19T10:47:21.995Z,1011.47
2017-02-19T10:48:22.527Z,1011.48
2017-02-19T10:49:23.061Z,1011.49
2017-02-19T10:50:23.593Z,1011.42
2017-02-19T10:51:24.119Z,1011.46
2017-02-19T10:52:24.661Z,1011.38
2017-02-19T10:53:25.480Z,1011.35
2017-02-19T10:54:25.710Z,1011.34
2017-02-19T10:55:26.242Z,1011.37
2017-02-19T10:56:26.774Z,1011.33
2017-02-19T10:57:27.308Z,1011.40
2017-02-19T10:58:27.839Z,1011.34
2017-02-19T10:59:28.377Z,1011.35
2017-02-19T11:00:28.901Z,1011.33
2017-02-19T11:01:29.430Z,1011.33
2017-02-19T11:02:29.963Z,1011.28
2017-02-19T11:03:30.490Z,1011.31
2017-02-19T11:04:31.032Z,1011.29
2017-02-19T11:05:31.559Z,1011.27
2017-02-19T11:06:32.088Z,1011.25
2017-02-19T11:07:32.629Z,1011.27
2017-02-19T11:08:33.156Z,1011.24
2017-02-19T11:09:33.683Z,1011.23
2017-02-19T11:10:34.363Z,1011.18
2017-02-19T11:11:34.895Z,1011.12
2017-02-19T11:12:35.276Z,1011.12
2017-02-19T11:13:35.811Z,1011.12
2017-02-19T11:14:36.341Z,1011.07
2017-02-19T11:15:36.873Z,1011.04
2017-02-19T11:16:37.401Z,1011.09
2017-02-19T11:17:37.936Z,1011.04
2017-02-19T11:18:38.467Z,1011.04
2017-02-19T11:19:38.994Z,1011.03
2017-02-19T11:20:39.525Z,1011.01
2017-02-19T11:21:40.078Z,1011.01
2017-02-19T11:22:40.591Z,1010.98
2017-02-19T11:23:41.139Z,1011.04
2017-02-19T11:24:41.663Z,1010.98
2017-02-19T11:25:42.224Z,1011.00
2017-02-19T11:26:42.735Z,1010.92
2017-02-19T11:27:43.270Z,1010.98
2017-02-19T11:28:43.802Z,1010.91
2017-02-19T11:29:44.344Z,1010.89
2017-02-19T11:30:44.868Z,1010.86
2017-02-19T11:31:45.551Z,1010.86
2017-02-19T11:32:46.095Z,1010.80
2017-02-19T11:33:46.462Z,1010.87
2017-02-19T11:34:46.991Z,1010.87
2017-02-19T11:35:47.516Z,1010.79
2017-02-19T11:36:48.048Z,1010.78
2017-02-19T11:37:48.581Z,1010.72
2017-02-19T11:38:49.109Z,1010.74
2017-02-19T11:39:49.643Z,1010.70
2017-02-19T11:40:50.170Z,1010.69
2017-02-19T11:41:50.855Z,1010.73
2017-02-19T11:42:51.232Z,1010.66
2017-02-19T11:43:51.761Z,1010.66
2017-02-19T11:44:52.292Z,1010.65
2017-02-19T11:45:52.828Z,1010.64
2017-02-19T11:46:53.358Z,1010.59
2017-02-19T11:47:53.886Z,1010.60
2017-02-19T11:48:54.423Z,1010.57
2017-02-19T11:49:54.950Z,1010.61
2017-02-19T11:50:55.500Z,1010.57
2017-02-19T11:51:56.018Z,1010.56
2017-02-19T11:52:56.548Z,1010.60
2017-02-19T11:53:57.075Z,1010.56
2017-02-19T11:54:57.602Z,1010.55
2017-02-19T11:55:58.143Z,1010.50
2017-02-19T11:56:58.664Z,1010.50
2017-02-19T11:57:59.192Z,1010.55
2017-02-19T11:58:59.726Z,1010.50
2017-02-19T12:00:00.264Z,1010.49
2017-02-19T12:01:00.783Z,1010.51
2017-02-19T12:02:01.309Z,1010.51
2017-02-19T12:03:01.841Z,1010.48
2017-02-19T12:04:02.375Z,1010.52
2017-02-19T12:05:02.911Z,1010.47
2017-02-19T12:06:03.456Z,1010.49
2017-02-19T12:07:03.984Z,1010.47
2017-02-19T12:08:04.516Z,1010.46
2017-02-19T12:09:05.052Z,1010.49
2017-02-19T12:10:05.737Z,1010.42
2017-02-19T12:11:06.118Z,1010.39
2017-02-19T12:12:06.825Z,1010.32